sensor_id;sensor_type;location;lat;lon;timestamp;temperature;humidity
12811;DHT22;6470;47.654;7.896;2023-03-14T00:01:47;10.60;99.90
12811;DHT22;6470;47.654;7.896;2023-03-14T00:04:14;10.20;99.90
12811;DHT22;6470;47.654;7.896;2023-03-14T00:06:40;10.10;99.90
12811;DHT22;6470;47.654;7.896;2023-03-14T00:11:32;10.20;99.90
12811;DHT22;6470;47.654;7.896;2023-03-14T00:13:58;9.40;99.90
12811;DHT22;6470;47.654;7.896;2023-03-14T00:16:25;10.00;99.90
12811;DHT22;6470;47.654;7.896;2023-03-14T00:18:50;9.90;99.90
12811;DHT22;6470;47.654;7.896;2023-03-14T00:21:16;9.30;99.90
12811;DHT22;6470;47.654;7.896;2023-03-14T00:23:42;9.90;99.90
12811;DHT22;6470;47.654;7.896;2023-03-14T00:26:13;9.00;99.90
12811;DHT22;6470;47.654;7.896;2023-03-14T00:28:40;9.90;99.90
12811;DHT22;6470;47.654;7.896;2023-03-14T00:31:08;9.10;99.90
12811;DHT22;6470;47.654;7.896;2023-03-14T00:33:34;10.10;99.90
12811;DHT22;6470;47.654;7.896;2023-03-14T00:36:12;9.90;99.90
12811;DHT22;6470;47.654;7.896;2023-03-14T00:38:39;9.80;99.90
12811;DHT22;6470;47.654;7.896;2023-03-14T00:41:06;9.70;99.90
12811;DHT22;6470;47.654;7.896;2023-03-14T00:43:32;9.80;99.90
12811;DHT22;6470;47.654;7.896;2023-03-14T00:45:58;10.10;99.90
12811;DHT22;6470;47.654;7.896;2023-03-14T00:51:45;9.60;99.90
12811;DHT22;6470;47.654;7.896;2023-03-14T00:54:11;9.10;99.90
12811;DHT22;6470;47.654;7.896;2023-03-14T00:56:37;9.00;99.90
12811;DHT22;6470;47.654;7.896;2023-03-14T00:59:02;9.50;99.90
12811;DHT22;6470;47.654;7.896;2023-03-14T01:01:28;9.40;99.90
12811;DHT22;6470;47.654;7.896;2023-03-14T01:03:55;10.10;99.90
12811;DHT22;6470;47.654;7.896;2023-03-14T01:06:24;9.50;99.90
12811;DHT22;6470;47.654;7.896;2023-03-14T01:08:50;9.30;99.90
12811;DHT22;6470;47.654;7.896;2023-03-14T01:11:27;9.00;99.90
12811;DHT22;6470;47.654;7.896;2023-03-14T01:16:21;9.80;99.90
12811;DHT22;6470;47.654;7.896;2023-03-14T01:18:48;9.50;99.90
12811;DHT22;6470;47.654;7.896;2023-03-14T01:21:17;9.50;99.90
12811;DHT22;6470;47.654;7.896;2023-03-14T01:23:44;9.20;99.90
12811;DHT22;6470;47.654;7.896;2023-03-14T01:26:11;9.70;99.90
12811;DHT22;6470;47.654;7.896;2023-03-14T01:28:37;9.80;99.90
12811;DHT22;6470;47.654;7.896;2023-03-14T01:31:08;10.00;99.90
12811;DHT22;6470;47.654;7.896;2023-03-14T01:33:35;10.10;99.90
12811;DHT22;6470;47.654;7.896;2023-03-14T01:39:23;9.20;99.90
12811;DHT22;6470;47.654;7.896;2023-03-14T01:44:14;8.50;99.90
12811;DHT22;6470;47.654;7.896;2023-03-14T01:46:45;8.80;99.90
12811;DHT22;6470;47.654;7.896;2023-03-14T01:52:38;7.10;99.90
12811;DHT22;6470;47.654;7.896;2023-03-14T01:55:12;9.20;99.90
12811;DHT22;6470;47.654;7.896;2023-03-14T02:00:10;9.10;99.90
12811;DHT22;6470;47.654;7.896;2023-03-14T02:02:38;9.80;99.90
12811;DHT22;6470;47.654;7.896;2023-03-14T02:05:05;8.70;99.90
12811;DHT22;6470;47.654;7.896;2023-03-14T02:07:46;9.50;99.90
12811;DHT22;6470;47.654;7.896;2023-03-14T02:10:12;9.50;99.90
12811;DHT22;6470;47.654;7.896;2023-03-14T02:15:06;9.00;99.90
12811;DHT22;6470;47.654;7.896;2023-03-14T02:17:32;9.10;99.90
12811;DHT22;6470;47.654;7.896;2023-03-14T02:22:35;9.30;99.90
12811;DHT22;6470;47.654;7.896;2023-03-14T02:27:33;9.90;99.90
12811;DHT22;6470;47.654;7.896;2023-03-14T02:30:23;8.90;99.90
12811;DHT22;6470;47.654;7.896;2023-03-14T02:32:50;9.30;99.90
12811;DHT22;6470;47.654;7.896;2023-03-14T02:35:23;8.90;99.90
12811;DHT22;6470;47.654;7.896;2023-03-14T02:37:56;7.20;99.90
12811;DHT22;6470;47.654;7.896;2023-03-14T02:40:22;7.30;99.90
12811;DHT22;6470;47.654;7.896;2023-03-14T02:42:48;9.00;99.90
12811;DHT22;6470;47.654;7.896;2023-03-14T02:47:43;9.20;99.90
12811;DHT22;6470;47.654;7.896;2023-03-14T02:53:33;8.60;99.90
12811;DHT22;6470;47.654;7.896;2023-03-14T02:56:00;8.90;99.90
12811;DHT22;6470;47.654;7.896;2023-03-14T02:58:26;8.70;99.90
12811;DHT22;6470;47.654;7.896;2023-03-14T03:00:53;9.00;99.90
12811;DHT22;6470;47.654;7.896;2023-03-14T03:03:18;9.00;99.90
12811;DHT22;6470;47.654;7.896;2023-03-14T03:05:51;9.40;99.90
12811;DHT22;6470;47.654;7.896;2023-03-14T03:08:20;9.00;99.90
12811;DHT22;6470;47.654;7.896;2023-03-14T03:10:47;9.20;99.90
12811;DHT22;6470;47.654;7.896;2023-03-14T03:13:13;8.80;99.90
12811;DHT22;6470;47.654;7.896;2023-03-14T03:15:38;8.60;99.90
12811;DHT22;6470;47.654;7.896;2023-03-14T03:18:05;8.90;99.90
12811;DHT22;6470;47.654;7.896;2023-03-14T03:20:30;9.20;99.90
12811;DHT22;6470;47.654;7.896;2023-03-14T03:22:56;8.60;99.90
12811;DHT22;6470;47.654;7.896;2023-03-14T03:25:22;8.20;99.90
12811;DHT22;6470;47.654;7.896;2023-03-14T03:30:14;8.50;99.90
12811;DHT22;6470;47.654;7.896;2023-03-14T03:37:32;8.50;99.90
12811;DHT22;6470;47.654;7.896;2023-03-14T03:39:58;8.50;99.90
12811;DHT22;6470;47.654;7.896;2023-03-14T03:42:26;9.00;99.90
12811;DHT22;6470;47.654;7.896;2023-03-14T03:44:52;7.20;99.90
12811;DHT22;6470;47.654;7.896;2023-03-14T03:47:18;8.50;99.90
12811;DHT22;6470;47.654;7.896;2023-03-14T03:53:05;8.60;99.90
12811;DHT22;6470;47.654;7.896;2023-03-14T03:55:31;8.20;99.90
12811;DHT22;6470;47.654;7.896;2023-03-14T03:57:56;8.80;99.90
12811;DHT22;6470;47.654;7.896;2023-03-14T04:00:22;7.90;99.90
12811;DHT22;6470;47.654;7.896;2023-03-14T04:02:48;7.80;99.90
12811;DHT22;6470;47.654;7.896;2023-03-14T04:05:14;8.30;99.90
12811;DHT22;6470;47.654;7.896;2023-03-14T04:10:06;8.40;99.90
12811;DHT22;6470;47.654;7.896;2023-03-14T04:12:32;8.60;99.90
12811;DHT22;6470;47.654;7.896;2023-03-14T04:14:57;8.50;99.90
12811;DHT22;6470;47.654;7.896;2023-03-14T04:17:23;8.60;99.90
12811;DHT22;6470;47.654;7.896;2023-03-14T04:19:49;9.10;99.90
12811;DHT22;6470;47.654;7.896;2023-03-14T04:22:16;7.20;99.90
12811;DHT22;6470;47.654;7.896;2023-03-14T04:24:42;8.60;99.90
12811;DHT22;6470;47.654;7.896;2023-03-14T04:27:08;7.70;99.90
12811;DHT22;6470;47.654;7.896;2023-03-14T04:31:59;7.10;99.90
12811;DHT22;6470;47.654;7.896;2023-03-14T04:34:25;8.80;99.90
12811;DHT22;6470;47.654;7.896;2023-03-14T04:36:51;7.40;99.90
12811;DHT22;6470;47.654;7.896;2023-03-14T04:39:16;8.70;99.90
12811;DHT22;6470;47.654;7.896;2023-03-14T04:44:08;8.50;99.90
12811;DHT22;6470;47.654;7.896;2023-03-14T04:46:34;8.50;99.90
12811;DHT22;6470;47.654;7.896;2023-03-14T04:48:59;5.40;99.90
12811;DHT22;6470;47.654;7.896;2023-03-14T04:51:25;8.10;99.90
12811;DHT22;6470;47.654;7.896;2023-03-14T04:53:53;7.70;99.90
12811;DHT22;6470;47.654;7.896;2023-03-14T05:01:11;8.20;99.90
12811;DHT22;6470;47.654;7.896;2023-03-14T05:03:37;7.50;99.90
12811;DHT22;6470;47.654;7.896;2023-03-14T05:06:04;8.50;99.90
12811;DHT22;6470;47.654;7.896;2023-03-14T05:08:30;8.50;99.90
12811;DHT22;6470;47.654;7.896;2023-03-14T05:10:57;7.90;99.90
12811;DHT22;6470;47.654;7.896;2023-03-14T05:13:23;7.90;99.90
12811;DHT22;6470;47.654;7.896;2023-03-14T05:15:49;8.00;99.90
12811;DHT22;6470;47.654;7.896;2023-03-14T05:18:19;8.10;99.90
12811;DHT22;6470;47.654;7.896;2023-03-14T05:20:44;5.20;99.90
12811;DHT22;6470;47.654;7.896;2023-03-14T05:23:10;7.60;99.90
12811;DHT22;6470;47.654;7.896;2023-03-14T05:25:36;8.10;99.90
12811;DHT22;6470;47.654;7.896;2023-03-14T05:28:01;7.90;99.90
12811;DHT22;6470;47.654;7.896;2023-03-14T05:30:27;5.50;99.90
12811;DHT22;6470;47.654;7.896;2023-03-14T05:32:53;7.50;99.90
12811;DHT22;6470;47.654;7.896;2023-03-14T05:35:19;7.30;99.90
12811;DHT22;6470;47.654;7.896;2023-03-14T05:37:45;7.90;99.90
12811;DHT22;6470;47.654;7.896;2023-03-14T05:40:11;7.90;99.90
12811;DHT22;6470;47.654;7.896;2023-03-14T05:42:37;5.30;99.90
12811;DHT22;6470;47.654;7.896;2023-03-14T05:45:03;4.80;99.90
12811;DHT22;6470;47.654;7.896;2023-03-14T05:50:57;7.40;99.90
12811;DHT22;6470;47.654;7.896;2023-03-14T05:53:25;8.00;99.90
12811;DHT22;6470;47.654;7.896;2023-03-14T05:55:55;7.50;99.90
12811;DHT22;6470;47.654;7.896;2023-03-14T05:58:21;7.30;99.90
12811;DHT22;6470;47.654;7.896;2023-03-14T06:00:47;7.00;99.90
12811;DHT22;6470;47.654;7.896;2023-03-14T06:03:13;7.50;99.90
12811;DHT22;6470;47.654;7.896;2023-03-14T06:05:38;7.40;99.90
12811;DHT22;6470;47.654;7.896;2023-03-14T06:08:04;7.40;99.90
12811;DHT22;6470;47.654;7.896;2023-03-14T06:10:30;7.80;99.90
12811;DHT22;6470;47.654;7.896;2023-03-14T06:12:56;7.30;99.90
12811;DHT22;6470;47.654;7.896;2023-03-14T06:15:22;7.50;99.90
12811;DHT22;6470;47.654;7.896;2023-03-14T06:17:47;7.60;99.90
12811;DHT22;6470;47.654;7.896;2023-03-14T06:22:39;5.50;99.90
12811;DHT22;6470;47.654;7.896;2023-03-14T06:25:06;8.00;99.90
12811;DHT22;6470;47.654;7.896;2023-03-14T06:27:32;8.00;99.90
12811;DHT22;6470;47.654;7.896;2023-03-14T06:29:58;8.20;99.90
12811;DHT22;6470;47.654;7.896;2023-03-14T06:32:24;8.50;99.90
12811;DHT22;6470;47.654;7.896;2023-03-14T06:34:50;8.20;99.90
12811;DHT22;6470;47.654;7.896;2023-03-14T06:37:15;5.40;99.90
12811;DHT22;6470;47.654;7.896;2023-03-14T06:39:41;8.20;99.90
12811;DHT22;6470;47.654;7.896;2023-03-14T06:42:09;8.30;99.90
12811;DHT22;6470;47.654;7.896;2023-03-14T06:44:35;8.50;99.90
12811;DHT22;6470;47.654;7.896;2023-03-14T06:47:00;8.50;99.90
12811;DHT22;6470;47.654;7.896;2023-03-14T06:49:26;8.60;99.90
12811;DHT22;6470;47.654;7.896;2023-03-14T06:51:52;9.00;99.90
12811;DHT22;6470;47.654;7.896;2023-03-14T06:54:18;9.00;99.90
12811;DHT22;6470;47.654;7.896;2023-03-14T06:56:44;9.40;99.90
12811;DHT22;6470;47.654;7.896;2023-03-14T06:59:09;9.00;99.90
12811;DHT22;6470;47.654;7.896;2023-03-14T07:01:35;8.10;99.90
12811;DHT22;6470;47.654;7.896;2023-03-14T07:04:01;8.90;99.90
12811;DHT22;6470;47.654;7.896;2023-03-14T07:06:27;9.20;99.90
12811;DHT22;6470;47.654;7.896;2023-03-14T07:08:55;8.60;99.90
12811;DHT22;6470;47.654;7.896;2023-03-14T07:13:47;8.80;99.90
12811;DHT22;6470;47.654;7.896;2023-03-14T07:16:13;9.30;99.90
12811;DHT22;6470;47.654;7.896;2023-03-14T07:18:39;9.00;99.90
12811;DHT22;6470;47.654;7.896;2023-03-14T07:21:06;8.90;99.90
12811;DHT22;6470;47.654;7.896;2023-03-14T07:23:33;9.40;99.90
12811;DHT22;6470;47.654;7.896;2023-03-14T07:25:59;9.50;99.90
12811;DHT22;6470;47.654;7.896;2023-03-14T07:28:25;9.30;99.90
12811;DHT22;6470;47.654;7.896;2023-03-14T07:30:53;8.80;99.90
12811;DHT22;6470;47.654;7.896;2023-03-14T07:33:18;9.40;99.90
12811;DHT22;6470;47.654;7.896;2023-03-14T07:35:45;9.20;99.90
12811;DHT22;6470;47.654;7.896;2023-03-14T07:38:11;9.20;99.90
12811;DHT22;6470;47.654;7.896;2023-03-14T07:40:37;9.20;99.90
12811;DHT22;6470;47.654;7.896;2023-03-14T07:43:02;8.90;99.90
12811;DHT22;6470;47.654;7.896;2023-03-14T07:45:28;9.60;99.90
12811;DHT22;6470;47.654;7.896;2023-03-14T07:47:54;8.90;99.90
12811;DHT22;6470;47.654;7.896;2023-03-14T07:50:23;9.00;99.90
12811;DHT22;6470;47.654;7.896;2023-03-14T07:52:49;9.00;99.90
12811;DHT22;6470;47.654;7.896;2023-03-14T07:55:15;8.90;99.90
12811;DHT22;6470;47.654;7.896;2023-03-14T07:57:41;9.50;99.90
12811;DHT22;6470;47.654;7.896;2023-03-14T08:00:07;9.30;99.90
12811;DHT22;6470;47.654;7.896;2023-03-14T08:02:33;9.80;99.90
12811;DHT22;6470;47.654;7.896;2023-03-14T08:07:25;9.30;99.90
12811;DHT22;6470;47.654;7.896;2023-03-14T08:09:50;9.90;99.90
12811;DHT22;6470;47.654;7.896;2023-03-14T08:12:16;9.80;99.90
12811;DHT22;6470;47.654;7.896;2023-03-14T08:14:42;9.80;99.90
12811;DHT22;6470;47.654;7.896;2023-03-14T08:22:57;9.80;99.90
12811;DHT22;6470;47.654;7.896;2023-03-14T08:25:23;9.80;99.90
12811;DHT22;6470;47.654;7.896;2023-03-14T08:27:49;9.60;99.90
12811;DHT22;6470;47.654;7.896;2023-03-14T08:30:17;10.50;99.90
12811;DHT22;6470;47.654;7.896;2023-03-14T08:32:43;10.60;99.90
12811;DHT22;6470;47.654;7.896;2023-03-14T08:35:09;10.20;99.90
12811;DHT22;6470;47.654;7.896;2023-03-14T08:37:35;10.20;99.90
12811;DHT22;6470;47.654;7.896;2023-03-14T08:40:02;10.50;99.90
12811;DHT22;6470;47.654;7.896;2023-03-14T08:42:34;10.50;99.90
12811;DHT22;6470;47.654;7.896;2023-03-14T08:45:00;10.50;99.90
12811;DHT22;6470;47.654;7.896;2023-03-14T08:47:26;10.50;99.90
12811;DHT22;6470;47.654;7.896;2023-03-14T08:49:52;12.10;99.90
12811;DHT22;6470;47.654;7.896;2023-03-14T08:52:17;9.80;99.90
12811;DHT22;6470;47.654;7.896;2023-03-14T08:54:43;9.20;99.90
12811;DHT22;6470;47.654;7.896;2023-03-14T08:57:09;10.10;99.90
12811;DHT22;6470;47.654;7.896;2023-03-14T08:59:35;9.90;99.90
12811;DHT22;6470;47.654;7.896;2023-03-14T09:02:01;10.40;99.90
12811;DHT22;6470;47.654;7.896;2023-03-14T09:04:29;9.80;99.90
12811;DHT22;6470;47.654;7.896;2023-03-14T09:06:55;12.30;99.90
12811;DHT22;6470;47.654;7.896;2023-03-14T09:09:23;12.10;99.90
12811;DHT22;6470;47.654;7.896;2023-03-14T09:11:49;10.70;99.90
12811;DHT22;6470;47.654;7.896;2023-03-14T09:16:41;11.90;99.90
12811;DHT22;6470;47.654;7.896;2023-03-14T09:19:07;10.40;99.90
12811;DHT22;6470;47.654;7.896;2023-03-14T09:21:32;12.20;99.90
12811;DHT22;6470;47.654;7.896;2023-03-14T09:23:58;10.60;99.90
12811;DHT22;6470;47.654;7.896;2023-03-14T09:26:23;10.40;99.90
12811;DHT22;6470;47.654;7.896;2023-03-14T09:28:49;10.20;99.90
12811;DHT22;6470;47.654;7.896;2023-03-14T09:31:15;9.80;99.90
12811;DHT22;6470;47.654;7.896;2023-03-14T09:33:41;10.10;99.90
12811;DHT22;6470;47.654;7.896;2023-03-14T09:36:07;10.20;99.90
12811;DHT22;6470;47.654;7.896;2023-03-14T09:41:01;10.00;99.90
12811;DHT22;6470;47.654;7.896;2023-03-14T09:43:29;9.90;99.90
12811;DHT22;6470;47.654;7.896;2023-03-14T09:45:57;10.00;99.90
12811;DHT22;6470;47.654;7.896;2023-03-14T09:48:29;9.20;99.90
12811;DHT22;6470;47.654;7.896;2023-03-14T09:50:57;9.80;99.90
12811;DHT22;6470;47.654;7.896;2023-03-14T09:53:33;9.80;99.90
12811;DHT22;6470;47.654;7.896;2023-03-14T09:56:00;8.80;99.90
12811;DHT22;6470;47.654;7.896;2023-03-14T10:00:55;9.80;99.90
12811;DHT22;6470;47.654;7.896;2023-03-14T10:03:34;9.90;99.90
12811;DHT22;6470;47.654;7.896;2023-03-14T10:06:01;9.70;99.90
12811;DHT22;6470;47.654;7.896;2023-03-14T10:08:27;9.70;99.90
12811;DHT22;6470;47.654;7.896;2023-03-14T10:10:53;10.30;99.90
12811;DHT22;6470;47.654;7.896;2023-03-14T10:15:55;9.90;99.90
12811;DHT22;6470;47.654;7.896;2023-03-14T10:18:22;9.50;99.90
12811;DHT22;6470;47.654;7.896;2023-03-14T10:20:52;9.50;99.90
12811;DHT22;6470;47.654;7.896;2023-03-14T10:23:28;9.40;99.90
12811;DHT22;6470;47.654;7.896;2023-03-14T10:26:07;9.50;99.90
12811;DHT22;6470;47.654;7.896;2023-03-14T10:28:40;9.20;99.90
12811;DHT22;6470;47.654;7.896;2023-03-14T10:31:07;9.40;99.90
12811;DHT22;6470;47.654;7.896;2023-03-14T10:33:36;8.70;99.90
12811;DHT22;6470;47.654;7.896;2023-03-14T10:36:03;9.90;99.90
12811;DHT22;6470;47.654;7.896;2023-03-14T10:38:35;9.50;99.90
12811;DHT22;6470;47.654;7.896;2023-03-14T10:41:02;8.90;99.90
12811;DHT22;6470;47.654;7.896;2023-03-14T10:43:32;9.40;99.90
12811;DHT22;6470;47.654;7.896;2023-03-14T10:46:11;9.50;99.90
12811;DHT22;6470;47.654;7.896;2023-03-14T10:52:27;9.10;99.90
12811;DHT22;6470;47.654;7.896;2023-03-14T10:55:02;8.70;99.90
12811;DHT22;6470;47.654;7.896;2023-03-14T10:57:28;8.40;99.90
12811;DHT22;6470;47.654;7.896;2023-03-14T10:59:55;8.90;99.90
12811;DHT22;6470;47.654;7.896;2023-03-14T11:02:53;9.20;99.90
12811;DHT22;6470;47.654;7.896;2023-03-14T11:05:39;9.20;99.90
12811;DHT22;6470;47.654;7.896;2023-03-14T11:11:10;9.00;99.90
12811;DHT22;6470;47.654;7.896;2023-03-14T11:22:06;8.70;99.90
12811;DHT22;6470;47.654;7.896;2023-03-14T11:28:00;8.60;99.90
12811;DHT22;6470;47.654;7.896;2023-03-14T11:30:45;7.90;99.90
12811;DHT22;6470;47.654;7.896;2023-03-14T11:40:50;8.10;99.90
12811;DHT22;6470;47.654;7.896;2023-03-14T11:43:38;8.60;99.90
12811;DHT22;6470;47.654;7.896;2023-03-14T11:52:12;8.70;99.90
12811;DHT22;6470;47.654;7.896;2023-03-14T11:54:55;8.90;99.90
12811;DHT22;6470;47.654;7.896;2023-03-14T11:57:23;8.90;99.90
12811;DHT22;6470;47.654;7.896;2023-03-14T12:10:49;9.40;99.90
12811;DHT22;6470;47.654;7.896;2023-03-14T12:13:17;9.60;99.90
12811;DHT22;6470;47.654;7.896;2023-03-14T12:15:50;9.50;99.90
12811;DHT22;6470;47.654;7.896;2023-03-14T12:18:31;9.80;99.90
12811;DHT22;6470;47.654;7.896;2023-03-14T12:21:03;9.40;99.90
12811;DHT22;6470;47.654;7.896;2023-03-14T12:23:56;10.00;99.90
12811;DHT22;6470;47.654;7.896;2023-03-14T12:26:25;9.50;99.90
12811;DHT22;6470;47.654;7.896;2023-03-14T12:42:17;9.10;99.90
12811;DHT22;6470;47.654;7.896;2023-03-14T12:44:49;9.40;99.90
12811;DHT22;6470;47.654;7.896;2023-03-14T12:53:36;9.20;99.90
12811;DHT22;6470;47.654;7.896;2023-03-14T13:01:23;9.20;99.90
12811;DHT22;6470;47.654;7.896;2023-03-14T13:03:57;9.10;99.90
12811;DHT22;6470;47.654;7.896;2023-03-14T13:06:51;9.30;99.90
12811;DHT22;6470;47.654;7.896;2023-03-14T13:12:19;9.80;99.90
12811;DHT22;6470;47.654;7.896;2023-03-14T13:14:49;9.40;99.90
12811;DHT22;6470;47.654;7.896;2023-03-14T13:17:24;8.90;99.90
12811;DHT22;6470;47.654;7.896;2023-03-14T13:19:57;7.10;99.90
12811;DHT22;6470;47.654;7.896;2023-03-14T13:22:27;9.60;99.90
12811;DHT22;6470;47.654;7.896;2023-03-14T13:25:00;9.30;99.90
12811;DHT22;6470;47.654;7.896;2023-03-14T13:27:27;8.60;99.90
12811;DHT22;6470;47.654;7.896;2023-03-14T13:29:55;9.10;99.90
12811;DHT22;6470;47.654;7.896;2023-03-14T13:32:25;8.50;99.90
12811;DHT22;6470;47.654;7.896;2023-03-14T13:34:55;9.00;99.90
12811;DHT22;6470;47.654;7.896;2023-03-14T13:37:23;7.00;99.90
12811;DHT22;6470;47.654;7.896;2023-03-14T13:39:53;7.60;99.90
12811;DHT22;6470;47.654;7.896;2023-03-14T13:42:24;9.00;99.90
12811;DHT22;6470;47.654;7.896;2023-03-14T13:44:52;9.10;99.90
12811;DHT22;6470;47.654;7.896;2023-03-14T13:50:54;9.20;99.90
12811;DHT22;6470;47.654;7.896;2023-03-14T13:53:21;10.00;99.90
12811;DHT22;6470;47.654;7.896;2023-03-14T13:55:47;9.50;99.90
12811;DHT22;6470;47.654;7.896;2023-03-14T13:58:27;9.20;99.90
12811;DHT22;6470;47.654;7.896;2023-03-14T14:01:06;8.90;99.90
12811;DHT22;6470;47.654;7.896;2023-03-14T14:03:38;9.10;99.90
12811;DHT22;6470;47.654;7.896;2023-03-14T14:06:08;9.20;99.90
12811;DHT22;6470;47.654;7.896;2023-03-14T14:08:35;8.80;99.90
12811;DHT22;6470;47.654;7.896;2023-03-14T14:11:02;9.30;99.90
12811;DHT22;6470;47.654;7.896;2023-03-14T14:13:32;9.10;99.90
12811;DHT22;6470;47.654;7.896;2023-03-14T14:16:00;9.40;99.90
12811;DHT22;6470;47.654;7.896;2023-03-14T14:18:27;8.90;99.90
12811;DHT22;6470;47.654;7.896;2023-03-14T14:20:53;9.90;99.90
12811;DHT22;6470;47.654;7.896;2023-03-14T14:23:24;9.50;99.90
12811;DHT22;6470;47.654;7.896;2023-03-14T14:25:55;9.60;99.90
12811;DHT22;6470;47.654;7.896;2023-03-14T14:28:30;9.70;99.90
12811;DHT22;6470;47.654;7.896;2023-03-14T14:31:18;9.60;99.90
12811;DHT22;6470;47.654;7.896;2023-03-14T14:34:02;10.10;99.90
12811;DHT22;6470;47.654;7.896;2023-03-14T14:36:38;9.50;99.90
12811;DHT22;6470;47.654;7.896;2023-03-14T14:39:17;10.10;99.90
12811;DHT22;6470;47.654;7.896;2023-03-14T14:41:44;9.60;99.90
12811;DHT22;6470;47.654;7.896;2023-03-14T14:44:13;9.70;99.90
12811;DHT22;6470;47.654;7.896;2023-03-14T14:46:42;10.10;99.90
12811;DHT22;6470;47.654;7.896;2023-03-14T14:52:43;9.70;99.90
12811;DHT22;6470;47.654;7.896;2023-03-14T14:55:34;9.70;99.90
12811;DHT22;6470;47.654;7.896;2023-03-14T14:58:12;10.20;99.90
12811;DHT22;6470;47.654;7.896;2023-03-14T15:00:41;9.80;99.90
12811;DHT22;6470;47.654;7.896;2023-03-14T15:03:14;8.90;99.90
12811;DHT22;6470;47.654;7.896;2023-03-14T15:05:41;9.10;99.90
12811;DHT22;6470;47.654;7.896;2023-03-14T15:08:10;9.50;99.90
12811;DHT22;6470;47.654;7.896;2023-03-14T15:10:36;10.50;99.90
12811;DHT22;6470;47.654;7.896;2023-03-14T15:13:02;10.30;99.90
12811;DHT22;6470;47.654;7.896;2023-03-14T15:15:28;10.10;99.90
12811;DHT22;6470;47.654;7.896;2023-03-14T15:17:54;10.30;99.90
12811;DHT22;6470;47.654;7.896;2023-03-14T15:20:19;9.70;99.90
12811;DHT22;6470;47.654;7.896;2023-03-14T15:25:15;12.10;99.90
12811;DHT22;6470;47.654;7.896;2023-03-14T15:27:41;9.50;99.90
12811;DHT22;6470;47.654;7.896;2023-03-14T15:30:15;10.80;99.90
12811;DHT22;6470;47.654;7.896;2023-03-14T15:32:41;9.60;99.90
12811;DHT22;6470;47.654;7.896;2023-03-14T15:35:07;9.60;99.90
12811;DHT22;6470;47.654;7.896;2023-03-14T15:37:33;9.60;99.90
12811;DHT22;6470;47.654;7.896;2023-03-14T15:39:59;9.50;99.90
12811;DHT22;6470;47.654;7.896;2023-03-14T15:44:51;9.30;99.90
12811;DHT22;6470;47.654;7.896;2023-03-14T15:53:04;9.60;99.90
12811;DHT22;6470;47.654;7.896;2023-03-14T15:55:30;9.80;99.90
12811;DHT22;6470;47.654;7.896;2023-03-14T15:57:55;9.80;99.90
12811;DHT22;6470;47.654;7.896;2023-03-14T16:00:21;9.20;99.90
12811;DHT22;6470;47.654;7.896;2023-03-14T16:02:48;10.00;99.90
12811;DHT22;6470;47.654;7.896;2023-03-14T16:05:14;8.50;99.90
12811;DHT22;6470;47.654;7.896;2023-03-14T16:07:40;8.80;99.90
12811;DHT22;6470;47.654;7.896;2023-03-14T16:10:07;9.60;99.90
12811;DHT22;6470;47.654;7.896;2023-03-14T16:12:33;9.70;99.90
12811;DHT22;6470;47.654;7.896;2023-03-14T16:14:59;9.90;99.90
12811;DHT22;6470;47.654;7.896;2023-03-14T16:17:25;9.00;99.90
12811;DHT22;6470;47.654;7.896;2023-03-14T16:19:51;10.00;99.90
12811;DHT22;6470;47.654;7.896;2023-03-14T16:22:17;9.20;99.90
12811;DHT22;6470;47.654;7.896;2023-03-14T16:24:43;9.50;99.90
12811;DHT22;6470;47.654;7.896;2023-03-14T16:27:09;9.40;99.90
12811;DHT22;6470;47.654;7.896;2023-03-14T16:29:35;8.90;99.90
12811;DHT22;6470;47.654;7.896;2023-03-14T16:32:00;8.50;99.90
12811;DHT22;6470;47.654;7.896;2023-03-14T16:34:26;8.00;99.90
12811;DHT22;6470;47.654;7.896;2023-03-14T16:36:52;8.60;99.90
12811;DHT22;6470;47.654;7.896;2023-03-14T16:39:18;4.40;99.90
12811;DHT22;6470;47.654;7.896;2023-03-14T16:41:44;4.90;99.90
12811;DHT22;6470;47.654;7.896;2023-03-14T16:44:10;8.00;99.90
12811;DHT22;6470;47.654;7.896;2023-03-14T16:49:02;4.30;99.90
12811;DHT22;6470;47.654;7.896;2023-03-14T16:51:28;7.90;99.90
12811;DHT22;6470;47.654;7.896;2023-03-14T16:53:54;4.90;99.90
12811;DHT22;6470;47.654;7.896;2023-03-14T16:56:20;4.60;99.90
12811;DHT22;6470;47.654;7.896;2023-03-14T16:58:46;4.40;99.90
12811;DHT22;6470;47.654;7.896;2023-03-14T17:01:14;6.40;99.90
12811;DHT22;6470;47.654;7.896;2023-03-14T17:03:49;7.50;99.90
12811;DHT22;6470;47.654;7.896;2023-03-14T17:06:25;7.40;99.90
12811;DHT22;6470;47.654;7.896;2023-03-14T17:08:52;7.50;99.90
12811;DHT22;6470;47.654;7.896;2023-03-14T17:11:18;7.40;99.90
12811;DHT22;6470;47.654;7.896;2023-03-14T17:13:43;7.50;99.90
12811;DHT22;6470;47.654;7.896;2023-03-14T17:16:09;7.20;99.90
12811;DHT22;6470;47.654;7.896;2023-03-14T17:21:02;7.30;99.90
12811;DHT22;6470;47.654;7.896;2023-03-14T17:23:30;7.50;99.90
12811;DHT22;6470;47.654;7.896;2023-03-14T17:25:56;7.40;99.90
12811;DHT22;6470;47.654;7.896;2023-03-14T17:28:24;7.50;99.90
12811;DHT22;6470;47.654;7.896;2023-03-14T17:30:50;4.60;99.90
12811;DHT22;6470;47.654;7.896;2023-03-14T17:33:25;8.00;99.90
12811;DHT22;6470;47.654;7.896;2023-03-14T17:35:50;7.20;99.90
12811;DHT22;6470;47.654;7.896;2023-03-14T17:38:17;6.40;99.90
12811;DHT22;6470;47.654;7.896;2023-03-14T17:40:47;7.30;99.90
12811;DHT22;6470;47.654;7.896;2023-03-14T17:43:13;7.90;99.90
12811;DHT22;6470;47.654;7.896;2023-03-14T17:45:39;7.70;99.90
12811;DHT22;6470;47.654;7.896;2023-03-14T17:50:34;3.80;99.90
12811;DHT22;6470;47.654;7.896;2023-03-14T17:52:59;7.10;99.90
12811;DHT22;6470;47.654;7.896;2023-03-14T17:55:25;4.30;99.90
12811;DHT22;6470;47.654;7.896;2023-03-14T17:57:51;6.80;99.90
12811;DHT22;6470;47.654;7.896;2023-03-14T18:00:17;6.70;99.90
12811;DHT22;6470;47.654;7.896;2023-03-14T18:02:44;6.60;99.90
12811;DHT22;6470;47.654;7.896;2023-03-14T18:05:10;7.00;99.90
12811;DHT22;6470;47.654;7.896;2023-03-14T18:07:37;7.00;99.90
12811;DHT22;6470;47.654;7.896;2023-03-14T18:10:04;6.90;99.90
12811;DHT22;6470;47.654;7.896;2023-03-14T18:12:31;6.40;99.90
12811;DHT22;6470;47.654;7.896;2023-03-14T18:14:57;6.40;99.90
12811;DHT22;6470;47.654;7.896;2023-03-14T18:17:23;3.50;99.90
12811;DHT22;6470;47.654;7.896;2023-03-14T18:19:48;6.00;99.90
12811;DHT22;6470;47.654;7.896;2023-03-14T18:22:14;6.20;99.90
12811;DHT22;6470;47.654;7.896;2023-03-14T18:24:40;6.10;99.90
12811;DHT22;6470;47.654;7.896;2023-03-14T18:27:06;6.30;99.90
12811;DHT22;6470;47.654;7.896;2023-03-14T18:31:59;6.20;99.90
12811;DHT22;6470;47.654;7.896;2023-03-14T18:34:25;6.00;99.90
12811;DHT22;6470;47.654;7.896;2023-03-14T18:36:51;5.80;99.90
12811;DHT22;6470;47.654;7.896;2023-03-14T18:39:17;5.60;99.90
12811;DHT22;6470;47.654;7.896;2023-03-14T18:41:43;6.00;99.90
12811;DHT22;6470;47.654;7.896;2023-03-14T18:44:08;5.50;99.90
12811;DHT22;6470;47.654;7.896;2023-03-14T18:46:35;5.60;99.90
12811;DHT22;6470;47.654;7.896;2023-03-14T18:49:01;5.60;99.90
12811;DHT22;6470;47.654;7.896;2023-03-14T18:51:31;5.70;99.90
12811;DHT22;6470;47.654;7.896;2023-03-14T18:53:57;5.50;99.90
12811;DHT22;6470;47.654;7.896;2023-03-14T18:56:27;5.90;99.90
12811;DHT22;6470;47.654;7.896;2023-03-14T18:58:54;5.90;99.90
12811;DHT22;6470;47.654;7.896;2023-03-14T19:03:47;6.30;99.90
12811;DHT22;6470;47.654;7.896;2023-03-14T19:06:14;6.40;99.90
12811;DHT22;6470;47.654;7.896;2023-03-14T19:08:41;3.40;99.90